createdAt,value
2022-09-27T03:18:23.321Z,99.90
2022-09-27T03:21:18.500Z,99.90
2022-09-27T03:23:47.728Z,99.90
2022-09-27T03:26:15.855Z,99.90
2022-09-27T03:28:47.028Z,99.90
2022-09-27T03:31:17.989Z,99.90
2022-09-27T03:34:19.542Z,99.90
2022-09-27T03:37:15.016Z,99.90
2022-09-27T03:39:59.818Z,99.90
2022-09-27T03:42:49.653Z,99.90
2022-09-27T03:45:20.040Z,99.90
2022-09-27T03:48:03.790Z,99.90
2022-09-27T03:50:51.971Z,99.90
2022-09-27T03:53:28.330Z,99.90
2022-09-27T03:56:04.242Z,99.90
2022-09-27T03:58:37.877Z,99.90
2022-09-27T04:01:11.151Z,99.90
2022-09-27T04:03:45.881Z,99.90
2022-09-27T04:06:35.101Z,99.90
2022-09-27T04:09:08.910Z,99.90
2022-09-27T04:12:03.737Z,99.90
2022-09-27T04:14:51.814Z,99.90
2022-09-27T04:17:58.324Z,99.90
2022-09-27T04:20:39.913Z,99.90
2022-09-27T04:23:13.413Z,99.90
2022-09-27T04:25:59.158Z,99.90
2022-09-27T04:29:12.465Z,99.90
2022-09-27T04:32:02.517Z,99.90
2022-09-27T04:34:50.433Z,99.90
2022-09-27T04:37:24.167Z,99.90
2022-09-27T04:39:56.576Z,99.90
2022-09-27T04:42:41.691Z,99.90
2022-09-27T04:45:19.120Z,99.90
2022-09-27T04:48:00.604Z,99.90
2022-09-27T04:51:08.045Z,99.90
2022-09-27T04:53:44.809Z,99.90
2022-09-27T04:56:24.723Z,99.90
2022-09-27T04:59:10.812Z,99.90
2022-09-27T05:02:20.961Z,99.90
2022-09-27T05:05:08.201Z,99.90
2022-09-27T05:07:58.397Z,99.90
2022-09-27T05:10:52.620Z,99.90
2022-09-27T05:13:23.827Z,99.90
2022-09-27T05:15:57.554Z,99.90
2022-09-27T05:18:44.383Z,99.90
2022-09-27T05:21:32.758Z,99.90
2022-09-27T05:24:01.240Z,99.90
2022-09-27T05:26:29.461Z,99.90
2022-09-27T05:29:08.174Z,99.90
2022-09-27T05:31:55.746Z,99.90
2022-09-27T05:34:34.415Z,99.90
2022-09-27T05:37:19.091Z,99.90
2022-09-27T05:39:54.002Z,99.90
2022-09-27T05:42:24.811Z,99.90
2022-09-27T05:44:54.728Z,99.90
2022-09-27T05:47:27.263Z,99.90
2022-09-27T05:50:00.739Z,99.90
2022-09-27T05:52:45.823Z,99.90
2022-09-27T05:55:15.730Z,99.90
2022-09-27T05:57:45.604Z,99.90
2022-09-27T06:00:26.790Z,99.90
2022-09-27T06:03:09.557Z,99.90
2022-09-27T06:06:10.876Z,99.90
2022-09-27T06:09:01.186Z,99.90
2022-09-27T06:11:36.271Z,99.90
2022-09-27T06:14:16.739Z,99.90
2022-09-27T06:17:04.242Z,99.90
2022-09-27T06:19:41.088Z,99.90
2022-09-27T06:22:16.809Z,99.90
2022-09-27T06:25:21.427Z,99.90
2022-09-27T06:28:23.294Z,99.90
2022-09-27T06:31:02.439Z,99.90
2022-09-27T06:33:53.644Z,99.90
2022-09-27T06:36:41.316Z,99.90
2022-09-27T06:39:11.199Z,99.90
2022-09-27T06:42:08.224Z,99.90
2022-09-27T06:45:09.549Z,99.90
2022-09-27T06:47:41.124Z,99.90
2022-09-27T06:50:28.409Z,99.90
2022-09-27T06:53:04.842Z,99.90
2022-09-27T06:55:33.672Z,99.90
2022-09-27T06:58:20.578Z,99.90
2022-09-27T07:01:09.221Z,99.90
2022-09-27T07:04:13.423Z,99.90
2022-09-27T07:07:04.048Z,99.90
2022-09-27T07:09:44.977Z,99.90
2022-09-27T07:12:25.951Z,99.90
2022-09-27T07:15:04.667Z,99.90
2022-09-27T07:17:58.902Z,99.90
2022-09-27T07:20:46.306Z,99.90
2022-09-27T07:23:17.961Z,99.90
2022-09-27T07:25:52.227Z,99.90
2022-09-27T07:28:24.041Z,99.90
2022-09-27T07:31:04.695Z,99.90
2022-09-27T07:33:42.988Z,99.90
2022-09-27T07:36:18.486Z,99.90
2022-09-27T07:38:56.484Z,99.90
2022-09-27T07:41:28.944Z,99.90
2022-09-27T07:43:59.892Z,99.90
2022-09-27T07:46:35.607Z,99.90
2022-09-27T07:49:39.284Z,71.60
2022-09-27T07:52:40.492Z,77.90
2022-09-27T07:55:28.309Z,65.10
2022-09-27T07:58:21.901Z,79.70
2022-09-27T08:00:53.550Z,87.40
2022-09-27T08:03:26.503Z,26.50
2022-09-27T08:06:10.413Z,27.20
2022-09-27T08:08:41.125Z,33.80
2022-09-27T08:11:35.071Z,1.00
2022-09-27T08:14:15.012Z,1.00
2022-09-27T08:16:52.488Z,1.00
2022-09-27T08:19:34.403Z,1.00
2022-09-27T08:22:35.338Z,1.00
2022-09-27T08:25:07.494Z,1.00
2022-09-27T08:28:12.965Z,1.00
2022-09-27T08:31:01.115Z,99.90
2022-09-27T08:33:42.787Z,1.00
2022-09-27T08:36:25.697Z,1.00
2022-09-27T08:39:00.935Z,1.00
2022-09-27T08:42:07.617Z,99.90
2022-09-27T08:45:04.530Z,99.90
2022-09-27T08:47:42.057Z,99.90
2022-09-27T08:50:45.632Z,1.00
2022-09-27T08:53:36.994Z,99.90
2022-09-27T08:56:10.259Z,1.00
2022-09-27T08:58:49.856Z,1.00
2022-09-27T09:01:30.020Z,1.00
2022-09-27T09:04:13.237Z,1.00
2022-09-27T09:06:53.071Z,1.00
2022-09-27T09:09:34.973Z,1.00
2022-09-27T09:12:43.282Z,1.00
2022-09-27T09:15:27.608Z,1.00
2022-09-27T09:18:27.777Z,1.00
2022-09-27T09:21:42.413Z,68.70
2022-09-27T09:24:26.509Z,1.00
2022-09-27T09:27:03.213Z,1.00
2022-09-27T09:29:47.677Z,1.00
2022-09-27T09:32:28.381Z,17.70
2022-09-27T09:35:02.290Z,1.00
2022-09-27T09:37:45.033Z,1.00
2022-09-27T09:40:22.173Z,1.00
2022-09-27T09:42:59.824Z,1.00
2022-09-27T09:45:33.332Z,99.90
2022-09-27T09:48:17.209Z,1.00
2022-09-27T09:50:49.696Z,1.00
2022-09-27T09:53:25.455Z,1.00
2022-09-27T09:56:01.800Z,1.00
2022-09-27T09:58:38.224Z,1.00
2022-09-27T10:01:20.005Z,1.00
2022-09-27T10:03:51.416Z,1.00
2022-09-27T10:06:24.131Z,1.00
2022-09-27T10:09:15.056Z,99.90
2022-09-27T10:11:51.539Z,99.90
2022-09-27T10:14:36.621Z,99.90
2022-09-27T10:17:22.217Z,99.90
2022-09-27T10:19:54.587Z,99.90
2022-09-27T10:22:32.434Z,99.90
2022-09-27T10:25:11.175Z,99.90
2022-09-27T10:28:15.995Z,1.00
2022-09-27T10:30:46.228Z,1.00
2022-09-27T10:33:33.796Z,1.00
2022-09-27T10:36:27.725Z,1.00
2022-09-27T10:39:33.050Z,99.90
2022-09-27T10:42:20.914Z,1.00
2022-09-27T10:44:51.640Z,81.10
2022-09-27T10:51:30.986Z,1.00
2022-09-27T10:54:20.563Z,1.00
2022-09-27T10:57:03.532Z,1.00
2022-09-27T10:59:47.002Z,99.90
2022-09-27T11:02:36.744Z,99.90
2022-09-27T11:05:40.682Z,99.90
2022-09-27T11:09:14.358Z,1.00
2022-09-27T11:11:45.459Z,68.70
2022-09-27T11:14:35.086Z,1.00
2022-09-27T11:17:47.635Z,99.90
2022-09-27T11:20:33.712Z,1.00
2022-09-27T11:23:39.647Z,99.90
2022-09-27T11:26:36.263Z,99.90
2022-09-27T11:29:19.977Z,1.00
2022-09-27T11:32:20.155Z,2.10
2022-09-27T11:35:09.454Z,8.50
2022-09-27T11:38:00.648Z,99.90
2022-09-27T11:40:44.902Z,1.00
2022-09-27T11:43:45.143Z,1.00
2022-09-27T11:46:41.145Z,1.00
2022-09-27T11:49:35.347Z,1.00
2022-09-27T11:52:30.844Z,1.00
2022-09-27T11:55:19.230Z,22.80
2022-09-27T11:57:59.697Z,1.00
2022-09-27T12:00:43.151Z,1.00
2022-09-27T12:03:59.453Z,1.00
2022-09-27T12:06:39.996Z,99.90
2022-09-27T12:09:22.396Z,99.90
2022-09-27T12:12:10.895Z,99.90
2022-09-27T12:14:51.696Z,99.90
2022-09-27T12:17:27.719Z,42.40
2022-09-27T12:20:05.717Z,99.90
2022-09-27T12:22:59.148Z,99.90
2022-09-27T12:25:50.932Z,1.00
2022-09-27T12:28:34.822Z,1.00
2022-09-27T12:31:28.570Z,1.00
2022-09-27T12:34:12.162Z,1.00
2022-09-27T12:36:48.477Z,1.00
2022-09-27T12:39:28.287Z,30.10
2022-09-27T12:42:19.521Z,1.00
2022-09-27T12:44:51.820Z,1.00
2022-09-27T12:47:38.268Z,1.00
2022-09-27T12:50:20.548Z,1.00
2022-09-27T12:53:00.295Z,99.90
2022-09-27T12:56:10.872Z,1.00
2022-09-27T12:58:59.974Z,1.00
2022-09-27T13:01:49.612Z,1.00
2022-09-27T13:04:47.933Z,1.00
2022-09-27T13:07:34.952Z,1.00
2022-09-27T13:10:26.739Z,1.00
2022-09-27T13:12:58.216Z,99.90
2022-09-27T13:15:30.592Z,99.90
2022-09-27T13:18:03.052Z,99.90
2022-09-27T13:20:49.234Z,99.90
2022-09-27T13:23:53.186Z,1.00
2022-09-27T13:26:51.870Z,1.00
2022-09-27T13:29:34.471Z,1.00
2022-09-27T13:32:24.429Z,46.00
2022-09-27T13:35:19.865Z,1.00
2022-09-27T13:38:00.885Z,1.00
2022-09-27T13:40:44.227Z,13.20
2022-09-27T13:43:54.456Z,99.90
2022-09-27T13:46:35.729Z,99.90
2022-09-27T13:49:16.149Z,99.90
2022-09-27T13:52:20.872Z,1.00
2022-09-27T13:54:59.575Z,99.90
2022-09-27T13:57:43.777Z,99.90
2022-09-27T14:00:19.930Z,99.90
2022-09-27T14:03:03.681Z,8.10
2022-09-27T14:05:37.748Z,99.90
2022-09-27T14:08:15.347Z,99.90
2022-09-27T14:10:45.138Z,99.90
2022-09-27T14:13:24.025Z,1.00
2022-09-27T14:16:04.999Z,99.90
2022-09-27T14:18:46.458Z,1.00
2022-09-27T14:21:25.348Z,10.40
2022-09-27T14:24:29.208Z,99.90
2022-09-27T14:27:13.454Z,99.90
2022-09-27T14:29:46.488Z,99.90
2022-09-27T14:32:21.620Z,99.90
2022-09-27T14:35:32.764Z,99.90
2022-09-27T14:38:15.834Z,99.90
2022-09-27T14:41:07.354Z,99.90
2022-09-27T14:43:37.147Z,1.00
2022-09-27T14:46:07.472Z,1.00
2022-09-27T14:48:37.860Z,1.00
2022-09-27T14:51:20.700Z,99.90
2022-09-27T14:53:53.681Z,26.40
2022-09-27T14:56:33.491Z,1.00
2022-09-27T14:59:11.467Z,1.00
2022-09-27T15:01:50.536Z,99.90
2022-09-27T15:04:23.437Z,1.00
2022-09-27T15:06:57.241Z,1.00
2022-09-27T15:09:32.350Z,99.90
2022-09-27T15:12:26.196Z,1.00
2022-09-27T15:15:03.943Z,1.00
2022-09-27T15:17:47.802Z,1.00
2022-09-27T15:20:35.756Z,1.00
2022-09-27T15:23:31.853Z,1.00
2022-09-27T15:26:11.443Z,1.00
2022-09-27T15:29:26.078Z,1.00
2022-09-27T15:32:03.018Z,1.00
2022-09-27T15:34:34.286Z,99.90
2022-09-27T15:37:30.368Z,50.70
2022-09-27T15:40:32.456Z,1.00
2022-09-27T15:43:30.288Z,6.40
2022-09-27T15:46:03.484Z,99.90
2022-09-27T15:48:45.839Z,99.90
2022-09-27T15:51:52.615Z,99.90
2022-09-27T15:54:35.977Z,99.90
2022-09-27T15:57:06.723Z,99.90
2022-09-27T15:59:39.582Z,99.90
2022-09-27T16:02:17.600Z,99.90
2022-09-27T16:04:47.555Z,99.90
2022-09-27T16:07:16.710Z,99.90
2022-09-27T16:09:47.073Z,99.90
2022-09-27T16:12:15.666Z,99.90
2022-09-27T16:14:45.227Z,99.90
2022-09-27T16:17:18.520Z,3.80
2022-09-27T16:19:47.291Z,99.90
2022-09-27T16:22:17.229Z,99.90
2022-09-27T16:24:46.348Z,99.90
2022-09-27T16:27:19.318Z,99.90
2022-09-27T16:29:49.632Z,99.90
2022-09-27T16:32:22.959Z,99.90
2022-09-27T16:34:54.659Z,99.90
2022-09-27T16:37:23.357Z,99.90
2022-09-27T16:39:51.912Z,1.00
2022-09-27T16:42:22.111Z,1.00
2022-09-27T16:44:52.927Z,1.00
2022-09-27T16:47:31.267Z,1.00
2022-09-27T16:50:17.484Z,1.00
2022-09-27T16:52:49.936Z,1.00
2022-09-27T16:55:21.171Z,1.00
2022-09-27T16:57:50.027Z,1.00
2022-09-27T17:00:19.670Z,1.00
2022-09-27T17:02:49.926Z,1.00
2022-09-27T17:05:20.269Z,69.50
2022-09-27T17:07:52.236Z,64.10
2022-09-27T17:10:20.884Z,99.90
2022-09-27T17:12:50.776Z,99.90
2022-09-27T17:15:25.580Z,99.90
2022-09-27T17:17:55.474Z,99.90
2022-09-27T17:20:23.976Z,99.90
2022-09-27T17:22:53.599Z,99.90
2022-09-27T17:25:27.054Z,99.90
2022-09-27T17:27:55.802Z,1.00
2022-09-27T17:30:24.394Z,1.00
2022-09-27T17:32:57.607Z,1.00
2022-09-27T17:35:31.453Z,1.00
2022-09-27T17:37:59.860Z,1.00
2022-09-27T17:40:28.389Z,1.00
2022-09-27T17:42:57.061Z,1.00
2022-09-27T17:45:25.579Z,1.00
2022-09-27T17:48:19.551Z,1.00
2022-09-27T17:50:47.958Z,1.00
2022-09-27T17:53:16.300Z,1.00
2022-09-27T17:55:45.091Z,1.00
2022-09-27T17:58:13.400Z,1.00
2022-09-27T18:00:42.033Z,1.00
2022-09-27T18:03:13.094Z,1.00
2022-09-27T18:05:41.695Z,1.00
2022-09-27T18:08:10.030Z,1.00
2022-09-27T18:10:38.843Z,1.00
2022-09-27T18:13:07.722Z,1.00
2022-09-27T18:15:37.574Z,1.00
2022-09-27T18:18:06.268Z,11.50
2022-09-27T18:20:37.491Z,46.20
2022-09-27T18:23:11.196Z,85.00
2022-09-27T18:25:42.286Z,85.30
2022-09-27T18:28:11.232Z,99.90
2022-09-27T18:30:42.187Z,99.90
2022-09-27T18:33:10.885Z,99.90
2022-09-27T18:35:42.726Z,99.90
2022-09-27T18:38:13.474Z,99.90
2022-09-27T18:40:57.067Z,99.90
2022-09-27T18:43:28.543Z,99.90
2022-09-27T18:46:04.372Z,99.90
2022-09-27T18:48:48.321Z,99.90
2022-09-27T18:51:24.493Z,99.90
2022-09-27T18:53:56.522Z,99.90
2022-09-27T18:56:27.579Z,99.90
2022-09-27T18:58:59.532Z,99.90
2022-09-27T19:01:30.844Z,99.90
2022-09-27T19:04:01.625Z,99.90
2022-09-27T19:06:35.305Z,99.90
2022-09-27T19:09:05.062Z,99.90
2022-09-27T19:11:38.410Z,99.90
2022-09-27T19:14:07.226Z,99.90
2022-09-27T19:16:38.179Z,99.90
2022-09-27T19:19:09.334Z,99.90
2022-09-27T19:21:39.222Z,99.90
2022-09-27T19:24:07.897Z,99.90
2022-09-27T19:26:38.071Z,99.90
2022-09-27T19:29:08.275Z,99.90
2022-09-27T19:31:38.641Z,99.90
2022-09-27T19:34:10.375Z,99.90
2022-09-27T19:36:40.854Z,99.90
2022-09-27T19:39:11.713Z,99.90
2022-09-27T19:41:40.464Z,99.90
2022-09-27T19:44:13.464Z,99.90
2022-09-27T19:46:42.254Z,99.90
2022-09-27T19:49:15.518Z,99.90
2022-09-27T19:51:48.146Z,90.70
2022-09-27T19:54:21.345Z,46.80
2022-09-27T19:56:50.727Z,30.10
2022-09-27T19:59:31.776Z,19.70
2022-09-27T20:02:05.320Z,1.00
2022-09-27T20:04:33.945Z,1.00
2022-09-27T20:07:03.681Z,1.00
2022-09-27T20:09:33.067Z,1.00
2022-09-27T20:12:03.267Z,1.00
2022-09-27T20:14:32.148Z,6.70
2022-09-27T20:17:00.623Z,21.40
2022-09-27T20:19:29.143Z,24.50
2022-09-27T20:21:57.799Z,49.30
2022-09-27T20:24:30.510Z,52.40
2022-09-27T20:27:04.636Z,51.00
2022-09-27T20:29:35.501Z,84.40
2022-09-27T20:32:26.847Z,92.80
2022-09-27T20:35:01.883Z,99.90
2022-09-27T20:37:32.949Z,99.90
2022-09-27T20:40:07.768Z,99.90
2022-09-27T20:45:44.598Z,97.20
2022-09-27T20:48:13.112Z,86.30
2022-09-27T20:50:44.125Z,73.50
2022-09-27T20:53:13.191Z,59.60
2022-09-27T20:55:51.806Z,38.80
2022-09-27T20:58:25.221Z,19.40
2022-09-27T21:00:55.191Z,9.50
2022-09-27T21:03:23.748Z,4.60
2022-09-27T21:05:55.213Z,1.00
2022-09-27T21:08:24.867Z,8.50
2022-09-27T21:10:54.016Z,96.40
2022-09-27T21:13:23.192Z,99.90
2022-09-27T21:15:51.450Z,99.90
2022-09-27T21:18:21.665Z,99.90
2022-09-27T21:21:00.980Z,99.90
2022-09-27T21:23:31.741Z,99.90
2022-09-27T21:26:06.968Z,99.90
2022-09-27T21:28:41.912Z,99.90
2022-09-27T21:31:12.242Z,99.90
2022-09-27T21:33:42.684Z,99.90
2022-09-27T21:36:14.405Z,99.90
2022-09-27T21:38:43.064Z,99.90
2022-09-27T21:41:16.250Z,99.90
2022-09-27T21:43:46.321Z,99.90
2022-09-27T21:46:18.435Z,99.90
2022-09-27T21:48:50.038Z,99.90
2022-09-27T21:51:20.052Z,99.90
2022-09-27T21:53:52.591Z,99.90
2022-09-27T21:56:21.758Z,99.90
2022-09-27T21:58:50.387Z,99.90
2022-09-27T22:01:21.932Z,99.90
2022-09-27T22:03:54.175Z,99.90
2022-09-27T22:06:24.687Z,99.90
2022-09-27T22:08:53.585Z,99.90
